Time;durP1;ratioP1;P1;durP2;ratioP2;P2;SDS_P1;SDS_P2;PMS_P1;PMS_P2;Temp;Humidity;BMP_temperature;BMP_pressure;BME280_temperature;BME280_humidity;BME280_pressure;Samples;Min_cycle;Max_cycle;Signal;HPM_P1;HPM_P2
2021/09/06 00:01:23;;;;;;;0.37;0.37;;;16.60;99.90;;;;;;5100434;28;20497;-86
2021/09/06 00:03:49;;;;;;;0.20;0.20;;;16.40;99.90;;;;;;5099654;28;20046;-86
2021/09/06 00:06:14;;;;;;;0.53;0.53;;;16.50;99.90;;;;;;5104168;28;20513;-86
2021/09/06 00:08:40;;;;;;;0.23;0.23;;;16.50;99.90;;;;;;5100182;28;20085;-85
2021/09/06 00:11:10;;;;;;;0.53;0.27;;;16.50;99.90;;;;;;5102594;28;20028;-85
2021/09/06 00:13:40;;;;;;;0.30;0.25;;;16.40;99.90;;;;;;5102189;28;20026;-86
2021/09/06 00:16:07;;;;;;;0.20;0.20;;;16.50;99.90;;;;;;5103287;28;20039;-86
2021/09/06 00:18:33;;;;;;;0.95;0.95;;;16.50;99.90;;;;;;5098065;28;20028;-87
2021/09/06 00:21:01;;;;;;;0.33;0.33;;;16.50;99.90;;;;;;5103995;27;20069;-85
2021/09/06 00:23:29;;;;;;;0.30;0.30;;;16.70;99.90;;;;;;5100352;27;20059;-86
2021/09/06 00:25:55;;;;;;;1.13;0.32;;;16.50;99.90;;;;;;5102007;27;20024;-86
2021/09/06 00:28:21;;;;;;;0.10;0.10;;;16.70;99.90;;;;;;5104367;28;20662;-87
2021/09/06 00:30:47;;;;;;;0.20;0.20;;;16.40;99.90;;;;;;5101370;28;20281;-85
2021/09/06 00:33:12;;;;;;;0.87;0.40;;;16.30;99.90;;;;;;5103978;28;20524;-86
2021/09/06 00:35:39;;;;;;;0.53;0.53;;;16.40;99.90;;;;;;5103050;27;20024;-86
2021/09/06 00:38:04;;;;;;;0.32;0.32;;;16.50;99.90;;;;;;5100241;28;20244;-86
2021/09/06 00:40:30;;;;;;;0.27;0.27;;;16.70;99.90;;;;;;5095197;27;20044;-86
2021/09/06 00:42:57;;;;;;;0.47;0.47;;;16.40;99.90;;;;;;5105881;28;20075;-84
2021/09/06 00:45:22;;;;;;;0.32;0.20;;;16.10;99.90;;;;;;5104796;27;20450;-87
2021/09/06 00:47:48;;;;;;;0.20;0.20;;;16.20;99.90;;;;;;5107568;27;20035;-85
2021/09/06 00:50:16;;;;;;;0.30;0.30;;;16.20;99.90;;;;;;5103272;27;20035;-85
2021/09/06 00:52:44;;;;;;;0.20;0.20;;;16.00;99.90;;;;;;5098651;28;20043;-86
2021/09/06 00:55:12;;;;;;;0.08;0.08;;;16.00;99.90;;;;;;5103331;27;20047;-86
2021/09/06 00:57:38;;;;;;;0.13;0.13;;;16.00;99.90;;;;;;5102539;28;20032;-86
2021/09/06 01:00:07;;;;;;;0.60;0.50;;;16.00;99.90;;;;;;5100299;28;20035;-86
2021/09/06 01:02:33;;;;;;;0.20;0.20;;;15.90;99.90;;;;;;5104209;27;20023;-86
2021/09/06 01:04:59;;;;;;;0.80;0.40;;;15.80;99.90;;;;;;5102046;27;20105;-86
2021/09/06 01:07:25;;;;;;;2.23;0.80;;;15.80;99.90;;;;;;5104518;28;20048;-86
2021/09/06 01:09:51;;;;;;;0.33;0.33;;;15.80;99.90;;;;;;5099629;27;20509;-85
2021/09/06 01:12:16;;;;;;;0.50;0.50;;;15.70;99.90;;;;;;5101715;27;20058;-87
2021/09/06 01:14:42;;;;;;;0.10;0.10;;;15.80;99.90;;;;;;5101057;27;20042;-86
2021/09/06 01:17:08;;;;;;;0.10;0.10;;;15.90;99.90;;;;;;5100929;27;20024;-86
2021/09/06 01:19:34;;;;;;;0.20;0.20;;;15.90;99.90;;;;;;5106354;27;20514;-87
2021/09/06 01:22:00;;;;;;;0.10;0.10;;;15.70;99.90;;;;;;5108918;27;20038;-87
2021/09/06 01:24:26;;;;;;;0.10;0.10;;;15.80;99.90;;;;;;5102735;27;20517;-86
2021/09/06 01:26:52;;;;;;;0.10;0.10;;;15.60;99.90;;;;;;5100073;28;20028;-86
2021/09/06 01:29:18;;;;;;;0.33;0.33;;;15.70;99.90;;;;;;5100770;28;20542;-85
2021/09/06 01:31:44;;;;;;;0.30;0.30;;;15.70;99.90;;;;;;5102547;27;20239;-86
2021/09/06 01:34:11;;;;;;;0.30;0.30;;;15.60;99.90;;;;;;5102465;28;20027;-86
2021/09/06 01:36:37;;;;;;;0.50;0.50;;;15.70;99.90;;;;;;5109205;27;20051;-86
2021/09/06 01:39:04;;;;;;;1.20;0.63;;;15.60;99.90;;;;;;5104847;27;20031;-85
2021/09/06 01:41:31;;;;;;;0.10;0.10;;;15.50;99.90;;;;;;5107989;27;20046;-86
2021/09/06 01:43:57;;;;;;;0.30;0.30;;;15.50;99.90;;;;;;5101182;28;20108;-86
2021/09/06 01:46:30;;;;;;;0.73;0.57;;;15.40;99.90;;;;;;5108707;27;20048;-86
2021/09/06 01:48:57;;;;;;;0.10;0.10;;;15.50;99.90;;;;;;5112747;27;20023;-86
2021/09/06 01:51:27;;;;;;;0.52;0.52;;;15.60;99.90;;;;;;5106221;27;20027;-86
2021/09/06 01:53:54;;;;;;;0.75;0.75;;;15.50;99.90;;;;;;5102206;27;20028;-86
2021/09/06 01:56:20;;;;;;;;;;;15.30;99.90;;;;;;5096338;27;20163;-86
2021/09/06 01:58:46;;;;;;;0.20;0.20;;;15.40;99.90;;;;;;5101130;28;19951;-86
2021/09/06 02:01:12;;;;;;;0.38;0.30;;;15.40;99.90;;;;;;5101529;27;20050;-85
2021/09/06 02:03:37;;;;;;;0.27;0.27;;;15.60;99.90;;;;;;5101026;28;20031;-86
2021/09/06 02:06:03;;;;;;;0.10;0.10;;;15.70;99.90;;;;;;5100886;27;20020;-85
2021/09/06 02:08:29;;;;;;;0.43;0.43;;;15.60;99.90;;;;;;5101744;27;20765;-86
2021/09/06 02:10:55;;;;;;;0.20;0.20;;;15.40;99.90;;;;;;5101438;27;20028;-86
2021/09/06 02:13:21;;;;;;;0.90;0.90;;;15.40;99.90;;;;;;5101886;28;20073;-86
2021/09/06 02:15:47;;;;;;;1.20;0.50;;;15.40;99.90;;;;;;5106868;27;20122;-84
2021/09/06 02:18:13;;;;;;;0.23;0.13;;;15.40;99.90;;;;;;5104805;27;20031;-86
2021/09/06 02:20:39;;;;;;;0.50;0.50;;;15.40;99.90;;;;;;5098408;28;20401;-85
2021/09/06 02:23:05;;;;;;;0.93;0.63;;;15.40;99.90;;;;;;5102765;28;20031;-86
2021/09/06 02:25:31;;;;;;;0.93;0.38;;;15.30;99.90;;;;;;5103384;27;20115;-85
2021/09/06 02:27:57;;;;;;;0.20;0.20;;;15.20;99.90;;;;;;5102324;27;20122;-85
2021/09/06 02:30:22;;;;;;;0.20;0.20;;;15.30;99.90;;;;;;5099065;27;20030;-86
2021/09/06 02:32:48;;;;;;;0.27;0.27;;;15.40;99.90;;;;;;5099407;28;20516;-86
2021/09/06 02:35:14;;;;;;;0.10;0.10;;;15.30;99.90;;;;;;5109607;27;20035;-87
2021/09/06 02:37:40;;;;;;;0.40;0.40;;;15.30;99.90;;;;;;5117127;27;20470;-85
2021/09/06 02:40:06;;;;;;;0.57;0.53;;;15.30;99.90;;;;;;5101815;27;20085;-86
2021/09/06 02:42:32;;;;;;;0.20;0.20;;;15.30;99.90;;;;;;5099218;28;20040;-86
2021/09/06 02:44:58;;;;;;;0.60;0.60;;;15.20;99.90;;;;;;5102072;27;20379;-86
2021/09/06 02:47:23;;;;;;;0.20;0.20;;;15.20;99.90;;;;;;5094328;28;20028;-86
2021/09/06 02:49:49;;;;;;;0.30;0.30;;;15.10;99.90;;;;;;5101101;27;20040;-86
2021/09/06 02:52:14;;;;;;;0.40;0.40;;;15.10;99.90;;;;;;5101506;28;20031;-87
2021/09/06 02:54:40;;;;;;;0.73;0.73;;;15.00;99.90;;;;;;5099803;27;20027;-85
2021/09/06 02:57:06;;;;;;;0.40;0.40;;;15.00;99.90;;;;;;5100227;28;20084;-86
2021/09/06 02:59:32;;;;;;;0.30;0.30;;;15.00;99.90;;;;;;5097668;28;20103;-85
2021/09/06 03:01:57;;;;;;;3.73;1.27;;;15.00;99.90;;;;;;5096104;27;20035;-86
2021/09/06 03:04:23;;;;;;;0.80;0.80;;;15.00;99.90;;;;;;5101428;28;20031;-86
2021/09/06 03:06:49;;;;;;;0.13;0.13;;;15.10;99.90;;;;;;5102500;28;20073;-87
2021/09/06 03:09:14;;;;;;;0.23;0.23;;;14.90;99.90;;;;;;5100737;27;20111;-86
2021/09/06 03:11:40;;;;;;;0.17;0.17;;;14.80;99.90;;;;;;5095319;28;20719;-86
2021/09/06 03:14:06;;;;;;;0.10;0.10;;;14.80;99.90;;;;;;5099287;27;20428;-86
2021/09/06 03:16:31;;;;;;;0.47;0.47;;;14.90;99.90;;;;;;5105175;27;20080;-85
2021/09/06 03:18:57;;;;;;;0.93;0.60;;;14.70;99.90;;;;;;5103779;28;20034;-86
2021/09/06 03:21:23;;;;;;;0.43;0.40;;;14.70;99.90;;;;;;5095058;28;20027;-86
2021/09/06 03:23:49;;;;;;;0.23;0.23;;;14.60;99.90;;;;;;5101556;28;20024;-86
2021/09/06 03:26:14;;;;;;;0.40;0.30;;;14.70;99.90;;;;;;5097492;28;20028;-85
2021/09/06 03:28:41;;;;;;;1.53;0.97;;;14.50;99.90;;;;;;5104697;27;20084;-86
2021/09/06 03:31:07;;;;;;;0.10;0.10;;;14.60;99.90;;;;;;5102193;28;21000;-85
2021/09/06 03:33:32;;;;;;;0.27;0.27;;;14.60;99.90;;;;;;5099204;28;20039;-87
2021/09/06 03:35:58;;;;;;;0.17;0.17;;;14.50;99.90;;;;;;5099795;28;20063;-85
2021/09/06 03:38:24;;;;;;;0.30;0.30;;;14.60;99.90;;;;;;5097545;28;20114;-86
2021/09/06 03:40:50;;;;;;;0.47;0.40;;;14.60;99.90;;;;;;5104167;28;20043;-86
2021/09/06 03:43:15;;;;;;;0.20;0.20;;;14.60;99.90;;;;;;5100447;28;20110;-85
2021/09/06 03:45:41;;;;;;;0.20;0.20;;;14.50;99.90;;;;;;5105720;28;20562;-86
2021/09/06 03:48:07;;;;;;;0.10;0.10;;;14.50;99.90;;;;;;5096841;28;20024;-85
2021/09/06 03:50:33;;;;;;;0.30;0.30;;;14.50;99.90;;;;;;5099510;28;20491;-86
2021/09/06 03:52:58;;;;;;;0.13;0.13;;;14.50;99.90;;;;;;5099410;28;20106;-85
2021/09/06 03:55:24;;;;;;;0.20;0.20;;;14.50;99.90;;;;;;5101936;28;20036;-86
2021/09/06 03:57:49;;;;;;;0.20;0.20;;;14.50;99.90;;;;;;5104308;28;20134;-86
2021/09/06 04:00:15;;;;;;;0.40;0.40;;;14.50;99.90;;;;;;5102081;27;20040;-86
2021/09/06 04:02:41;;;;;;;0.20;0.20;;;14.30;99.90;;;;;;5103473;27;20578;-85
2021/09/06 04:05:07;;;;;;;2.60;1.17;;;14.30;99.90;;;;;;5105651;27;20024;-88
2021/09/06 04:07:33;;;;;;;0.28;0.28;;;14.40;99.90;;;;;;5105797;28;20073;-86
2021/09/06 04:09:58;;;;;;;0.33;0.33;;;14.40;99.90;;;;;;5103623;27;20113;-86
2021/09/06 04:12:24;;;;;;;0.10;0.10;;;14.50;99.90;;;;;;5100956;27;20028;-86
2021/09/06 04:14:51;;;;;;;0.63;0.53;;;14.50;99.90;;;;;;5102610;28;20038;-86
2021/09/06 04:17:17;;;;;;;0.32;0.32;;;14.60;99.90;;;;;;5103167;27;20045;-86
2021/09/06 04:19:42;;;;;;;0.33;0.33;;;14.60;99.90;;;;;;5104418;28;20051;-86
2021/09/06 04:22:08;;;;;;;0.80;0.80;;;14.50;99.90;;;;;;5106187;28;20086;-85
2021/09/06 04:24:34;;;;;;;0.17;0.17;;;14.40;99.90;;;;;;5107166;27;20038;-86
2021/09/06 04:26:59;;;;;;;0.10;0.10;;;14.50;99.90;;;;;;5102409;27;20120;-86
2021/09/06 04:29:25;;;;;;;0.30;0.30;;;14.40;99.90;;;;;;5105191;28;21735;-86
2021/09/06 04:31:51;;;;;;;0.40;0.30;;;14.40;99.90;;;;;;5104409;27;20060;-86
2021/09/06 04:34:17;;;;;;;0.10;0.10;;;14.40;99.90;;;;;;5103949;28;20483;-87
2021/09/06 04:36:43;;;;;;;0.10;0.10;;;14.40;99.90;;;;;;5106215;27;20057;-86
2021/09/06 04:39:08;;;;;;;0.77;0.77;;;14.40;99.90;;;;;;5102141;28;20128;-87
2021/09/06 04:41:34;;;;;;;0.53;0.37;;;14.40;99.90;;;;;;5104095;27;20044;-86
2021/09/06 04:44:00;;;;;;;0.40;0.40;;;14.50;99.90;;;;;;5103345;27;20038;-87
2021/09/06 04:46:25;;;;;;;0.43;0.20;;;14.40;99.90;;;;;;5110278;27;20517;-87
2021/09/06 04:48:51;;;;;;;1.07;0.57;;;14.30;99.90;;;;;;5105510;27;20043;-85
2021/09/06 04:51:17;;;;;;;0.30;0.30;;;14.30;99.90;;;;;;5090681;28;20032;-85
2021/09/06 04:53:46;;;;;;;0.47;0.47;;;14.30;99.90;;;;;;5093327;27;20089;-87
2021/09/06 04:56:12;;;;;;;0.20;0.20;;;14.40;99.90;;;;;;5103953;28;20925;-88
2021/09/06 04:58:38;;;;;;;0.65;0.65;;;14.40;99.90;;;;;;5103384;28;20047;-88
2021/09/06 05:01:03;;;;;;;0.77;0.60;;;14.30;99.90;;;;;;5104149;28;20051;-86
2021/09/06 05:03:29;;;;;;;0.30;0.30;;;14.50;99.90;;;;;;5105169;28;20058;-86
2021/09/06 05:05:58;;;;;;;0.20;0.20;;;14.60;99.90;;;;;;5101506;27;20108;-88
2021/09/06 05:08:24;;;;;;;0.28;0.28;;;14.50;99.90;;;;;;5102353;28;20083;-80
2021/09/06 05:10:50;;;;;;;1.75;0.65;;;14.40;99.90;;;;;;5102243;27;20043;-79
2021/09/06 05:13:16;;;;;;;0.20;0.20;;;14.30;99.90;;;;;;5105304;28;20043;-80
2021/09/06 05:15:42;;;;;;;1.10;0.77;;;14.30;99.90;;;;;;5101288;28;20043;-80
2021/09/06 05:18:08;;;;;;;0.30;0.30;;;14.20;99.90;;;;;;5104612;27;20038;-80
2021/09/06 05:20:33;;;;;;;0.30;0.30;;;14.20;99.90;;;;;;5103179;28;20069;-80
2021/09/06 05:22:59;;;;;;;1.87;0.50;;;14.20;99.90;;;;;;5101700;27;20473;-81
2021/09/06 05:25:25;;;;;;;0.10;0.10;;;14.40;99.90;;;;;;5100303;27;20047;-81
2021/09/06 05:27:51;;;;;;;0.10;0.10;;;14.40;99.90;;;;;;5102138;28;20049;-80
2021/09/06 05:30:16;;;;;;;0.63;0.63;;;14.30;99.90;;;;;;5102313;27;20039;-80
2021/09/06 05:32:42;;;;;;;0.50;0.50;;;14.20;99.90;;;;;;5104490;27;20577;-80
2021/09/06 05:35:08;;;;;;;0.20;0.20;;;14.40;99.90;;;;;;5091756;28;20060;-80
2021/09/06 05:37:33;;;;;;;0.73;0.60;;;14.80;99.90;;;;;;5103400;28;20035;-80
2021/09/06 05:39:59;;;;;;;0.20;0.20;;;14.90;99.90;;;;;;5103776;28;20721;-80
2021/09/06 05:42:25;;;;;;;0.20;0.20;;;14.90;99.90;;;;;;5099499;27;20114;-80
2021/09/06 05:44:50;;;;;;;0.27;0.27;;;15.30;99.90;;;;;;5095972;28;20117;-80
2021/09/06 05:47:17;;;;;;;0.67;0.50;;;15.60;99.90;;;;;;5102651;28;20027;-80
2021/09/06 05:49:43;;;;;;;0.22;0.22;;;15.80;99.90;;;;;;5105988;27;20595;-87
2021/09/06 05:52:09;;;;;;;0.50;0.50;;;16.60;99.90;;;;;;5084460;28;20039;-88
2021/09/06 05:54:34;;;;;;;1.30;0.20;;;17.10;99.90;;;;;;5110011;27;20032;-87
2021/09/06 05:57:00;;;;;;;0.43;0.30;;;17.60;99.90;;;;;;5099025;28;20023;-88
2021/09/06 05:59:26;;;;;;;0.50;0.40;;;17.90;99.90;;;;;;5101740;27;20904;-87
2021/09/06 06:01:51;;;;;;;0.40;0.40;;;18.10;99.90;;;;;;5101727;28;20043;-88
2021/09/06 06:04:17;;;;;;;0.27;0.27;;;18.60;99.90;;;;;;5103420;28;20057;-87
2021/09/06 06:06:43;;;;;;;0.20;0.20;;;18.70;99.90;;;;;;5090019;28;20084;-87
2021/09/06 06:09:09;;;;;;;0.00;0.00;;;18.70;99.90;;;;;;5097407;27;20855;-87
2021/09/06 06:11:38;;;;;;;2.73;1.17;;;18.90;99.90;;;;;;5099008;28;20027;-87
2021/09/06 06:14:11;;;;;;;0.00;0.00;;;19.10;99.90;;;;;;5100062;27;20300;-87
2021/09/06 06:16:37;;;;;;;0.30;0.30;;;19.50;99.90;;;;;;5087643;28;20039;-86
2021/09/06 06:19:03;;;;;;;0.15;0.10;;;19.70;99.90;;;;;;5116398;27;20035;-88
2021/09/06 06:21:29;;;;;;;0.03;0.03;;;19.90;99.90;;;;;;5089124;27;20047;-87
2021/09/06 06:23:55;;;;;;;0.10;0.10;;;20.50;99.90;;;;;;5093366;28;20028;-87
2021/09/06 06:26:21;;;;;;;0.10;0.10;;;20.60;99.90;;;;;;5098713;28;20510;-87
2021/09/06 06:28:46;;;;;;;0.00;0.00;;;20.80;99.90;;;;;;5104930;27;20031;-86
2021/09/06 06:31:12;;;;;;;0.30;0.30;;;21.00;99.90;;;;;;5104258;28;20050;-87
2021/09/06 06:33:38;;;;;;;0.03;0.03;;;21.00;99.90;;;;;;5099694;28;20055;-87
2021/09/06 06:36:05;;;;;;;0.10;0.10;;;22.00;99.90;;;;;;5106525;27;20066;-88
2021/09/06 06:38:31;;;;;;;;;;;22.10;99.90;;;;;;5111514;27;20408;-89
2021/09/06 06:40:57;;;;;;;0.10;0.10;;;22.30;99.90;;;;;;5102767;27;19927;-91
2021/09/06 06:43:22;;;;;;;0.10;0.10;;;22.10;99.90;;;;;;5105293;27;20023;-85
2021/09/06 06:45:49;;;;;;;1.50;0.20;;;22.20;99.90;;;;;;5090783;27;20070;-83
2021/09/06 06:48:15;;;;;;;;;;;22.40;99.70;;;;;;5096994;28;20031;-85
2021/09/06 06:50:41;;;;;;;0.10;0.10;;;22.70;99.10;;;;;;5098058;28;19918;-84
2021/09/06 06:53:07;;;;;;;0.17;0.10;;;23.30;96.70;;;;;;5097794;28;20028;-84
2021/09/06 06:55:32;;;;;;;0.38;0.38;;;23.80;95.70;;;;;;5086258;28;20043;-84
2021/09/06 06:57:58;;;;;;;0.10;0.10;;;23.30;95.80;;;;;;5100513;28;20031;-84
2021/09/06 07:00:24;;;;;;;1.27;0.20;;;24.50;94.10;;;;;;5097889;28;20046;-85
2021/09/06 07:02:51;;;;;;;0.10;0.10;;;23.70;94.70;;;;;;5098333;28;20389;-85
2021/09/06 07:05:17;;;;;;;0.10;0.10;;;24.10;92.80;;;;;;5098110;28;20486;-84
2021/09/06 07:07:43;;;;;;;0.38;0.32;;;24.40;93.10;;;;;;5101044;28;20131;-84
2021/09/06 07:10:09;;;;;;;0.22;0.22;;;24.10;93.20;;;;;;5100634;28;20081;-84
2021/09/06 07:12:36;;;;;;;0.05;0.05;;;24.90;91.70;;;;;;5098405;28;20034;-85
2021/09/06 07:15:03;;;;;;;0.10;0.10;;;25.30;90.20;;;;;;5097614;28;20924;-85
2021/09/06 07:17:29;;;;;;;0.10;0.05;;;24.60;90.80;;;;;;5097674;28;20084;-85
2021/09/06 07:19:54;;;;;;;0.13;0.13;;;24.20;90.50;;;;;;5107034;27;20049;-84
2021/09/06 07:22:20;;;;;;;0.00;0.00;;;25.20;87.50;;;;;;5100572;28;20470;-84
2021/09/06 07:24:46;;;;;;;0.68;0.65;;;25.30;87.00;;;;;;5099771;28;20700;-84
2021/09/06 07:27:11;;;;;;;1.02;0.15;;;25.10;87.60;;;;;;5097363;28;20114;-85
2021/09/06 07:29:37;;;;;;;2.17;0.30;;;26.00;83.10;;;;;;5095911;28;20020;-84
2021/09/06 07:32:03;;;;;;;0.13;0.13;;;26.10;81.10;;;;;;5085996;28;20024;-85
2021/09/06 07:34:34;;;;;;;0.10;0.10;;;25.40;83.70;;;;;;5101851;28;20160;-84
2021/09/06 07:37:01;;;;;;;0.88;0.20;;;25.50;82.30;;;;;;5099946;28;20042;-85
2021/09/06 07:39:27;;;;;;;0.13;0.13;;;25.90;80.60;;;;;;5097649;28;20040;-84
2021/09/06 07:41:52;;;;;;;0.20;0.15;;;27.00;77.90;;;;;;5097827;28;20113;-85
2021/09/06 07:44:18;;;;;;;0.50;0.50;;;26.60;75.70;;;;;;5097809;28;20760;-85
2021/09/06 07:46:44;;;;;;;0.27;0.10;;;27.20;73.60;;;;;;5101607;28;20342;-83
2021/09/06 07:49:09;;;;;;;0.10;0.10;;;27.00;70.60;;;;;;5100618;28;20032;-85
2021/09/06 07:51:35;;;;;;;0.07;0.07;;;27.20;70.50;;;;;;5098326;28;20130;-85
2021/09/06 07:54:01;;;;;;;0.33;0.30;;;27.70;70.20;;;;;;5097634;28;20286;-84
2021/09/06 07:56:28;;;;;;;0.85;0.47;;;27.60;68.30;;;;;;5097986;28;20315;-84
2021/09/06 07:58:53;;;;;;;2.90;0.47;;;27.70;68.00;;;;;;5099738;28;20027;-85
2021/09/06 08:01:19;;;;;;;0.25;0.25;;;28.30;64.60;;;;;;5100717;28;20105;-85
2021/09/06 08:03:45;;;;;;;0.10;0.10;;;28.80;57.90;;;;;;5088983;28;20029;-85
2021/09/06 08:06:10;;;;;;;0.15;0.05;;;29.10;58.50;;;;;;5094444;28;20043;-85
2021/09/06 08:08:36;;;;;;;0.00;0.00;;;28.20;59.30;;;;;;5097789;28;20036;-84
2021/09/06 08:11:02;;;;;;;0.30;0.30;;;28.30;59.50;;;;;;5098701;28;20123;-84
2021/09/06 08:13:27;;;;;;;0.00;0.00;;;29.10;58.50;;;;;;5101250;28;20070;-85
2021/09/06 08:15:53;;;;;;;0.30;0.20;;;29.40;56.30;;;;;;5100008;28;20050;-84
2021/09/06 08:18:18;;;;;;;0.13;0.13;;;30.60;49.80;;;;;;5097771;28;20032;-85
2021/09/06 08:20:44;;;;;;;0.03;0.03;;;30.10;48.60;;;;;;5097027;28;20047;-84
2021/09/06 08:23:10;;;;;;;0.30;0.30;;;30.10;49.30;;;;;;5097564;28;20516;-85
2021/09/06 08:25:36;;;;;;;0.47;0.20;;;30.30;48.00;;;;;;5102083;28;20032;-84
2021/09/06 08:28:02;;;;;;;0.75;0.63;;;29.50;50.00;;;;;;5099834;28;20028;-84
2021/09/06 08:30:27;;;;;;;0.80;0.40;;;30.00;49.20;;;;;;5096953;28;20036;-85
2021/09/06 08:32:53;;;;;;;0.15;0.15;;;31.20;45.00;;;;;;5097058;28;20042;-85
2021/09/06 08:35:19;;;;;;;0.30;0.10;;;31.60;45.30;;;;;;5096790;28;20028;-84
2021/09/06 08:37:45;;;;;;;2.22;0.38;;;32.10;39.40;;;;;;5100535;28;20130;-84
2021/09/06 08:40:12;;;;;;;0.77;0.60;;;31.80;41.00;;;;;;5098528;28;20642;-84
2021/09/06 08:42:39;;;;;;;4.50;0.22;;;31.30;39.70;;;;;;5102121;28;20049;-85
2021/09/06 08:45:06;;;;;;;0.00;0.00;;;31.50;37.60;;;;;;5100832;28;20126;-84
2021/09/06 08:47:33;;;;;;;0.13;0.10;;;33.20;37.90;;;;;;5100777;28;20035;-85
2021/09/06 08:49:59;;;;;;;0.00;0.00;;;31.00;39.90;;;;;;5102199;28;20509;-85
2021/09/06 08:52:25;;;;;;;0.10;0.10;;;31.10;38.80;;;;;;5104387;28;20031;-84
2021/09/06 08:54:51;;;;;;;0.10;0.10;;;31.60;37.80;;;;;;5102913;28;20111;-84
2021/09/06 08:57:19;;;;;;;0.25;0.25;;;32.60;35.00;;;;;;5100661;28;20122;-84
2021/09/06 08:59:45;;;;;;;0.40;0.40;;;33.80;33.30;;;;;;5100624;28;20048;-85
2021/09/06 09:02:11;;;;;;;0.20;0.20;;;32.30;32.20;;;;;;5100866;28;20436;-84
2021/09/06 09:04:37;;;;;;;0.10;0.10;;;32.30;31.90;;;;;;5103988;28;20822;-85
2021/09/06 09:07:04;;;;;;;0.03;0.03;;;32.80;32.70;;;;;;5103176;28;20039;-85
2021/09/06 09:09:32;;;;;;;0.00;0.00;;;32.80;33.70;;;;;;5100377;28;20036;-85
2021/09/06 09:12:16;;;;;;;0.00;0.00;;;34.40;28.40;;;;;;5096364;28;20035;-84
2021/09/06 09:14:47;;;;;;;0.00;0.00;;;33.20;29.20;;;;;;5093457;28;20067;-84
2021/09/06 09:17:13;;;;;;;0.63;0.30;;;34.80;26.30;;;;;;5100452;28;20024;-84
2021/09/06 09:19:40;;;;;;;0.05;0.05;;;33.80;26.60;;;;;;5104233;28;20038;-84
2021/09/06 09:22:08;;;;;;;0.00;0.00;;;33.30;26.70;;;;;;5102970;28;20043;-85
2021/09/06 09:24:36;;;;;;;1.00;0.30;;;33.20;24.10;;;;;;5101525;28;20555;-84
2021/09/06 09:27:05;;;;;;;0.30;0.30;;;33.50;23.80;;;;;;5100286;28;20053;-85
2021/09/06 09:29:31;;;;;;;0.20;0.20;;;34.50;22.20;;;;;;5100408;28;20028;-84
2021/09/06 09:32:02;;;;;;;0.45;0.28;;;35.10;21.00;;;;;;5103865;28;20899;-84
2021/09/06 09:34:31;;;;;;;0.35;0.25;;;34.00;24.40;;;;;;5087210;28;20068;-85
2021/09/06 09:36:57;;;;;;;0.10;0.08;;;34.70;22.80;;;;;;5102453;28;20099;-85
2021/09/06 09:39:23;;;;;;;0.25;0.25;;;34.60;20.60;;;;;;5099614;28;20732;-84
2021/09/06 09:41:52;;;;;;;0.00;0.00;;;34.50;20.60;;;;;;5099680;28;20146;-84
2021/09/06 09:44:21;;;;;;;0.10;0.10;;;35.50;19.60;;;;;;5099977;28;20038;-84
2021/09/06 09:47:01;;;;;;;0.20;0.20;;;35.30;19.20;;;;;;5102251;28;20639;-85
2021/09/06 09:49:33;;;;;;;0.25;0.25;;;34.60;20.60;;;;;;5102841;28;20067;-84
2021/09/06 09:51:59;;;;;;;0.00;0.00;;;37.10;16.80;;;;;;5101166;28;20490;-84
2021/09/06 09:54:25;;;;;;;0.52;0.20;;;35.00;16.30;;;;;;5098465;28;20045;-85
2021/09/06 09:56:51;;;;;;;0.30;0.20;;;36.20;14.60;;;;;;5099453;28;20036;-84
2021/09/06 09:59:18;;;;;;;0.30;0.03;;;35.80;14.90;;;;;;5099189;28;20448;-84
2021/09/06 10:02:04;;;;;;;0.00;0.00;;;36.40;14.00;;;;;;5102004;28;20048;-84
2021/09/06 10:04:38;;;;;;;0.10;0.10;;;38.00;15.90;;;;;;5103090;28;20052;-84
2021/09/06 10:07:05;;;;;;;0.00;0.00;;;37.10;11.70;;;;;;5102494;27;20113;-84
2021/09/06 10:09:44;;;;;;;0.10;0.10;;;37.60;13.20;;;;;;5099007;28;20727;-85
2021/09/06 10:12:20;;;;;;;0.20;0.20;;;37.70;11.70;;;;;;5098758;28;20084;-85
2021/09/06 10:14:51;;;;;;;0.10;0.10;;;37.40;9.10;;;;;;5098822;28;20037;-85
2021/09/06 10:17:17;;;;;;;0.32;0.32;;;38.30;10.20;;;;;;5098543;28;20147;-85
2021/09/06 10:19:45;;;;;;;0.22;0.15;;;38.60;11.70;;;;;;5102557;28;20473;-85
2021/09/06 10:22:25;;;;;;;6.53;1.17;;;37.10;16.40;;;;;;5101505;28;20040;-85
2021/09/06 10:25:00;;;;;;;0.30;0.10;;;36.50;13.20;;;;;;5099844;28;20039;-85
2021/09/06 10:27:28;;;;;;;1.35;0.30;;;35.60;10.90;;;;;;5098348;28;20042;-85
2021/09/06 10:29:59;;;;;;;0.10;0.10;;;37.10;15.30;;;;;;5098705;28;20519;-85
2021/09/06 10:32:40;;;;;;;0.00;0.00;;;36.50;10.50;;;;;;5097810;28;20498;-85
2021/09/06 10:35:08;;;;;;;0.35;0.35;;;37.20;16.00;;;;;;5098831;28;20036;-85
2021/09/06 10:37:35;;;;;;;0.52;0.28;;;36.30;17.20;;;;;;5086616;28;20055;-85
2021/09/06 10:40:04;;;;;;;0.00;0.00;;;35.30;22.70;;;;;;5100550;28;20023;-86
2021/09/06 10:42:32;;;;;;;0.10;0.00;;;33.30;23.30;;;;;;5098039;28;20051;-85
2021/09/06 10:45:00;;;;;;;0.20;0.20;;;32.50;26.70;;;;;;5102727;27;20096;-85
2021/09/06 10:47:26;;;;;;;0.28;0.28;;;30.90;29.30;;;;;;5098215;28;20028;-86
2021/09/06 10:49:52;;;;;;;0.20;0.20;;;30.40;29.10;;;;;;5100552;28;20054;-85
2021/09/06 10:52:18;;;;;;;0.20;0.20;;;30.20;30.40;;;;;;5083429;28;20414;-85
2021/09/06 10:54:44;;;;;;;0.38;0.17;;;29.70;31.90;;;;;;5099604;28;20034;-85
2021/09/06 10:57:13;;;;;;;0.80;0.30;;;29.20;33.30;;;;;;5097988;28;20119;-85
2021/09/06 10:59:44;;;;;;;0.00;0.00;;;29.40;35.10;;;;;;5097514;28;20078;-84
2021/09/06 11:02:10;;;;;;;0.00;0.00;;;28.90;35.20;;;;;;5097798;28;20032;-85
2021/09/06 11:04:38;;;;;;;0.00;0.00;;;29.40;36.20;;;;;;5102743;28;20111;-85
2021/09/06 11:07:06;;;;;;;0.45;0.20;;;29.20;36.70;;;;;;5100748;28;20139;-85
2021/09/06 11:09:34;;;;;;;0.10;0.10;;;28.80;38.30;;;;;;5097999;28;20591;-84
2021/09/06 11:12:01;;;;;;;0.00;0.00;;;28.80;37.80;;;;;;5097647;28;20557;-84
2021/09/06 11:14:35;;;;;;;0.10;0.10;;;28.40;37.70;;;;;;5097671;28;20078;-84
2021/09/06 11:17:01;;;;;;;0.32;0.32;;;28.60;39.40;;;;;;5099116;28;20020;-84
2021/09/06 11:19:29;;;;;;;0.20;0.08;;;29.00;38.50;;;;;;5099705;28;20039;-84
2021/09/06 11:21:59;;;;;;;0.30;0.30;;;29.00;39.30;;;;;;5083403;28;20075;-86
2021/09/06 11:24:27;;;;;;;1.25;0.40;;;29.20;37.80;;;;;;5096634;28;20036;-84
2021/09/06 11:26:54;;;;;;;0.20;0.20;;;29.10;38.40;;;;;;5097984;28;20040;-85
2021/09/06 11:29:19;;;;;;;0.05;0.05;;;28.90;37.90;;;;;;5097071;28;20790;-84
2021/09/06 11:31:49;;;;;;;0.08;0.08;;;29.00;38.30;;;;;;5100290;28;20040;-84
2021/09/06 11:34:15;;;;;;;0.15;0.10;;;29.00;39.00;;;;;;5100022;28;20058;-84
2021/09/06 11:36:43;;;;;;;;;;;28.90;38.30;;;;;;5099267;28;20576;-85
2021/09/06 11:39:09;;;;;;;0.22;0.10;;;28.80;39.30;;;;;;5097251;28;19919;-84
2021/09/06 11:41:39;;;;;;;0.82;0.22;;;28.80;38.80;;;;;;5097182;28;20039;-84
2021/09/06 11:44:06;;;;;;;0.22;0.22;;;28.80;40.00;;;;;;5097329;28;20593;-85
2021/09/06 11:46:33;;;;;;;0.22;0.15;;;28.60;40.00;;;;;;5102014;28;20031;-85
2021/09/06 11:49:01;;;;;;;0.43;0.40;;;28.40;40.00;;;;;;5099664;28;20485;-85
2021/09/06 11:51:26;;;;;;;0.47;0.47;;;28.60;40.10;;;;;;5096311;28;20131;-84
2021/09/06 11:53:54;;;;;;;0.00;0.00;;;28.50;39.30;;;;;;5097230;28;20035;-85
2021/09/06 11:56:19;;;;;;;0.73;0.40;;;28.40;39.50;;;;;;5097890;28;20039;-85
2021/09/06 11:58:46;;;;;;;0.17;0.17;;;28.00;39.50;;;;;;5100787;28;20023;-85
2021/09/06 12:01:16;;;;;;;0.15;0.15;;;28.20;40.00;;;;;;5098869;28;20043;-85
2021/09/06 12:03:43;;;;;;;0.17;0.15;;;28.20;40.20;;;;;;5098887;28;20077;-83
2021/09/06 12:06:21;;;;;;;0.22;0.22;;;28.30;39.80;;;;;;5097059;28;20524;-85
2021/09/06 12:08:57;;;;;;;0.32;0.30;;;28.20;39.70;;;;;;5097026;28;20039;-85
2021/09/06 12:11:34;;;;;;;0.30;0.30;;;28.30;40.80;;;;;;5096958;28;20114;-85
2021/09/06 12:14:01;;;;;;;0.43;0.20;;;28.40;40.40;;;;;;5098580;28;20035;-84
2021/09/06 12:16:30;;;;;;;0.00;0.00;;;28.20;38.50;;;;;;5102516;28;20039;-84
2021/09/06 12:18:57;;;;;;;0.13;0.13;;;28.20;39.80;;;;;;5103608;28;20032;-84
2021/09/06 12:21:24;;;;;;;0.00;0.00;;;28.20;38.90;;;;;;5100699;28;20039;-84
2021/09/06 12:24:02;;;;;;;0.13;0.13;;;28.40;40.30;;;;;;5100774;28;20035;-85
2021/09/06 12:26:44;;;;;;;0.20;0.20;;;28.30;39.90;;;;;;5100467;28;20038;-84
2021/09/06 12:29:10;;;;;;;0.05;0.05;;;28.40;40.20;;;;;;5101068;28;20768;-85
2021/09/06 12:31:41;;;;;;;0.63;0.30;;;28.40;38.80;;;;;;5088794;28;20100;-84
2021/09/06 12:34:07;;;;;;;0.20;0.20;;;28.40;39.70;;;;;;5103452;27;20093;-85
2021/09/06 12:36:33;;;;;;;0.22;0.22;;;28.50;40.40;;;;;;5092538;28;20036;-85
2021/09/06 12:38:58;;;;;;;0.10;0.10;;;28.30;39.20;;;;;;5096479;27;20387;-83
2021/09/06 12:41:27;;;;;;;0.08;0.08;;;28.30;39.00;;;;;;5099976;28;20301;-85
2021/09/06 12:43:53;;;;;;;0.30;0.30;;;28.40;40.00;;;;;;5103107;28;20045;-85
2021/09/06 12:46:19;;;;;;;0.30;0.30;;;28.40;38.90;;;;;;5103485;28;20409;-85